createdAt,value
2023-12-05T00:02:14.356Z,12.43
2023-12-05T00:04:41.118Z,13.80
2023-12-05T00:07:07.973Z,12.88
2023-12-05T00:09:34.762Z,12.15
2023-12-05T00:12:01.472Z,11.05
2023-12-05T00:14:28.145Z,12.98
2023-12-05T00:16:54.786Z,11.60
2023-12-05T00:19:22.212Z,11.65
2023-12-05T00:21:49.103Z,11.60
2023-12-05T00:24:15.817Z,11.88
2023-12-05T00:26:42.508Z,10.43
2023-12-05T00:29:09.135Z,10.52
2023-12-05T00:31:35.762Z,10.93
2023-12-05T00:34:02.514Z,11.77
2023-12-05T00:36:29.406Z,11.20
2023-12-05T00:38:56.280Z,10.80
2023-12-05T00:41:25.970Z,11.25
2023-12-05T00:43:53.046Z,10.90
2023-12-05T00:46:19.714Z,12.27
2023-12-05T00:48:46.377Z,12.48
2023-12-05T00:51:13.043Z,12.40
2023-12-05T00:53:39.695Z,11.73
2023-12-05T00:56:12.648Z,12.20
2023-12-05T00:58:39.277Z,12.60
2023-12-05T01:01:06.330Z,12.27
2023-12-05T01:03:33.848Z,11.23
2023-12-05T01:06:00.719Z,12.05
2023-12-05T01:08:28.053Z,12.25
2023-12-05T01:10:54.853Z,11.25
2023-12-05T01:13:22.293Z,12.70
2023-12-05T01:15:48.975Z,12.60
2023-12-05T01:18:15.780Z,11.90
2023-12-05T01:20:42.492Z,13.23
2023-12-05T01:23:09.175Z,11.45
2023-12-05T01:25:36.080Z,12.60
2023-12-05T01:28:05.437Z,11.10
2023-12-05T01:30:32.775Z,11.85
2023-12-05T01:32:59.441Z,12.18
2023-12-05T01:35:26.102Z,11.93
2023-12-05T01:37:52.739Z,11.15
2023-12-05T01:40:19.378Z,11.65
2023-12-05T01:42:46.076Z,11.32
2023-12-05T01:45:13.356Z,11.00
2023-12-05T01:47:41.333Z,10.98
2023-12-05T01:50:35.024Z,10.95
2023-12-05T01:53:06.109Z,9.75
2023-12-05T01:55:33.517Z,9.93
2023-12-05T01:58:00.657Z,10.48
2023-12-05T02:00:28.173Z,10.45
2023-12-05T02:02:57.014Z,10.73
2023-12-05T02:05:25.623Z,9.27
2023-12-05T02:07:52.907Z,11.68
2023-12-05T02:10:19.641Z,10.27
2023-12-05T02:12:47.229Z,10.48
2023-12-05T02:15:14.141Z,10.23
2023-12-05T02:18:29.573Z,10.80
2023-12-05T02:21:21.592Z,10.15
2023-12-05T02:24:16.759Z,9.57
2023-12-05T02:26:54.508Z,10.52
2023-12-05T02:29:21.130Z,10.07
2023-12-05T02:31:48.197Z,9.90
2023-12-05T02:34:15.303Z,10.85
2023-12-05T02:37:00.017Z,10.60
2023-12-05T02:39:36.296Z,9.95
2023-12-05T02:42:08.398Z,9.60
2023-12-05T02:44:45.686Z,10.23
2023-12-05T02:47:14.566Z,11.02
2023-12-05T02:49:41.906Z,12.23
2023-12-05T02:52:08.858Z,11.80
2023-12-05T02:54:35.642Z,11.63
2023-12-05T02:57:02.524Z,13.55
2023-12-05T02:59:29.267Z,13.63
2023-12-05T03:01:55.945Z,14.05
2023-12-05T03:04:22.858Z,14.18
2023-12-05T03:06:49.642Z,13.95
2023-12-05T03:09:16.352Z,14.75
2023-12-05T03:11:43.075Z,15.13
2023-12-05T03:14:11.802Z,15.18
2023-12-05T03:16:38.506Z,14.98
2023-12-05T03:19:05.347Z,15.38
2023-12-05T03:21:32.438Z,16.67
2023-12-05T03:23:59.311Z,15.07
2023-12-05T03:26:26.319Z,16.65
2023-12-05T03:28:53.356Z,15.93
2023-12-05T03:31:20.098Z,16.92
2023-12-05T03:33:47.129Z,16.55
2023-12-05T03:36:15.274Z,16.63
2023-12-05T03:38:41.961Z,15.30
2023-12-05T03:41:09.909Z,16.67
2023-12-05T03:43:36.649Z,16.52
2023-12-05T03:46:03.495Z,15.85
2023-12-05T03:48:30.300Z,16.75
2023-12-05T03:50:57.113Z,16.25
2023-12-05T03:53:23.870Z,15.45
2023-12-05T03:55:50.494Z,17.05
2023-12-05T03:58:17.841Z,16.77
2023-12-05T04:00:44.641Z,15.95
2023-12-05T04:03:11.667Z,17.02
2023-12-05T04:05:39.985Z,17.10
2023-12-05T04:08:07.087Z,15.77
2023-12-05T04:10:33.913Z,17.15
2023-12-05T04:13:00.574Z,17.23
2023-12-05T04:15:27.411Z,17.30
2023-12-05T04:17:54.235Z,17.10
2023-12-05T04:20:22.428Z,17.13
2023-12-05T04:22:49.111Z,17.13
2023-12-05T04:25:19.085Z,15.88
2023-12-05T04:27:45.778Z,18.17
2023-12-05T04:30:12.848Z,17.55
2023-12-05T04:32:39.512Z,17.00
2023-12-05T04:35:06.907Z,16.95
2023-12-05T04:37:33.602Z,18.73
2023-12-05T04:40:00.325Z,17.75
2023-12-05T04:42:27.197Z,16.90
2023-12-05T04:44:53.869Z,17.67
2023-12-05T04:47:21.406Z,17.00
2023-12-05T04:49:48.169Z,17.23
2023-12-05T04:52:14.824Z,16.67
2023-12-05T04:54:41.459Z,18.52
2023-12-05T04:57:09.362Z,18.13
2023-12-05T04:59:35.980Z,18.40
2023-12-05T05:02:02.802Z,17.27
2023-12-05T05:04:29.538Z,17.85
2023-12-05T05:06:56.796Z,18.95
2023-12-05T05:09:23.917Z,17.45
2023-12-05T05:11:50.526Z,18.77
2023-12-05T05:14:17.219Z,17.83
2023-12-05T05:16:43.853Z,18.10
2023-12-05T05:19:10.606Z,17.60
2023-12-05T05:21:37.280Z,18.02
2023-12-05T05:24:04.252Z,18.60
2023-12-05T05:26:30.926Z,16.50
2023-12-05T05:28:57.537Z,18.60
2023-12-05T05:31:24.177Z,17.42
2023-12-05T05:33:50.972Z,18.83
2023-12-05T05:36:17.695Z,18.08
2023-12-05T05:38:44.861Z,18.35
2023-12-05T05:41:11.792Z,17.95
2023-12-05T05:43:38.488Z,19.00
2023-12-05T05:46:05.343Z,19.40
2023-12-05T05:48:32.139Z,18.15
2023-12-05T05:50:58.908Z,18.65
2023-12-05T05:53:25.591Z,18.13
2023-12-05T05:55:52.229Z,18.15
2023-12-05T05:58:18.869Z,18.67
2023-12-05T06:00:46.298Z,18.30
2023-12-05T06:03:13.019Z,17.45
2023-12-05T06:05:39.815Z,16.60
2023-12-05T06:08:06.518Z,16.52
2023-12-05T06:10:33.990Z,17.55
2023-12-05T06:13:00.611Z,18.42
2023-12-05T06:15:27.552Z,20.30
2023-12-05T06:17:54.411Z,17.95
2023-12-05T06:20:21.702Z,18.83
2023-12-05T06:22:48.880Z,17.85
2023-12-05T06:25:15.734Z,17.65
2023-12-05T06:27:42.445Z,17.88
2023-12-05T06:30:17.167Z,17.75
2023-12-05T06:32:48.542Z,18.42
2023-12-05T06:35:15.332Z,17.33
2023-12-05T06:37:42.017Z,16.27
2023-12-05T06:40:09.574Z,17.27
2023-12-05T06:42:36.307Z,17.55
2023-12-05T06:45:03.838Z,18.02
2023-12-05T06:47:31.940Z,18.23
2023-12-05T06:50:05.289Z,18.63
2023-12-05T06:52:32.031Z,17.23
2023-12-05T06:54:58.655Z,16.50
2023-12-05T06:57:25.274Z,16.58
2023-12-05T06:59:51.976Z,15.48
2023-12-05T07:02:18.579Z,15.57
2023-12-05T07:04:45.474Z,14.88
2023-12-05T07:07:12.441Z,15.10
2023-12-05T07:09:39.175Z,15.40
2023-12-05T07:12:06.713Z,15.73
2023-12-05T07:14:38.187Z,15.05
2023-12-05T07:17:06.237Z,14.98
2023-12-05T07:19:32.931Z,14.02
2023-12-05T07:21:59.566Z,12.88
2023-12-05T07:24:26.998Z,13.18
2023-12-05T07:26:53.622Z,12.90
2023-12-05T07:29:21.263Z,12.80
2023-12-05T07:31:47.949Z,14.50
2023-12-05T07:34:14.643Z,12.77
2023-12-05T07:36:42.519Z,12.95
2023-12-05T07:39:11.017Z,12.63
2023-12-05T07:41:38.230Z,12.57
2023-12-05T07:44:04.996Z,12.85
2023-12-05T07:46:31.623Z,12.40
2023-12-05T07:48:58.365Z,11.73
2023-12-05T07:51:26.327Z,14.80
2023-12-05T07:53:56.690Z,14.85
2023-12-05T07:56:23.311Z,13.85
2023-12-05T07:58:49.966Z,22.63
2023-12-05T08:01:16.828Z,14.35
2023-12-05T08:03:43.949Z,18.60
2023-12-05T08:06:11.785Z,13.05
2023-12-05T08:08:38.577Z,22.73
2023-12-05T08:11:06.641Z,13.02
2023-12-05T08:13:33.429Z,11.50
2023-12-05T08:16:00.197Z,19.42
2023-12-05T08:18:27.510Z,9.80
2023-12-05T08:20:54.254Z,7.85
2023-12-05T08:23:21.248Z,11.55
2023-12-05T08:25:48.018Z,10.38
2023-12-05T08:28:14.931Z,8.55
2023-12-05T08:30:42.474Z,8.43
2023-12-05T08:33:10.232Z,8.07
2023-12-05T08:35:37.179Z,13.93
2023-12-05T08:38:03.995Z,10.77
2023-12-05T08:40:30.649Z,8.88
2023-12-05T08:42:57.390Z,17.50
2023-12-05T08:45:25.315Z,14.13
2023-12-05T08:47:55.003Z,23.67
2023-12-05T08:50:22.481Z,9.00
2023-12-05T08:52:49.326Z,10.00
2023-12-05T08:55:16.067Z,7.80
2023-12-05T08:57:43.089Z,7.40
2023-12-05T09:00:10.384Z,24.00
2023-12-05T09:02:37.147Z,17.33
2023-12-05T09:05:04.533Z,15.52
2023-12-05T09:07:32.236Z,14.93
2023-12-05T09:09:59.147Z,9.52
2023-12-05T09:12:26.146Z,8.35
2023-12-05T09:14:52.865Z,8.95
2023-12-05T09:17:20.080Z,9.98
2023-12-05T09:19:46.955Z,8.27
2023-12-05T09:22:13.621Z,10.00
2023-12-05T09:24:40.316Z,8.80
2023-12-05T09:27:07.184Z,7.10
2023-12-05T09:29:49.906Z,7.32
2023-12-05T09:32:19.066Z,6.95
2023-12-05T09:34:46.401Z,7.15
2023-12-05T09:37:13.372Z,6.85
2023-12-05T09:39:41.017Z,6.10
2023-12-05T09:42:11.914Z,6.43
2023-12-05T09:44:43.029Z,7.78
2023-12-05T09:47:11.961Z,13.30
2023-12-05T09:49:41.851Z,7.72
2023-12-05T09:52:10.179Z,8.18
2023-12-05T09:54:38.424Z,10.50
2023-12-05T09:57:06.364Z,7.78
2023-12-05T09:59:33.530Z,10.18
2023-12-05T10:02:05.517Z,8.10
2023-12-05T10:04:46.708Z,10.98
2023-12-05T10:07:14.699Z,8.35
2023-12-05T10:09:43.069Z,9.13
2023-12-05T10:12:11.509Z,8.30
2023-12-05T10:14:39.174Z,8.50
2023-12-05T10:17:06.510Z,8.43
2023-12-05T10:19:35.233Z,6.32
2023-12-05T10:22:03.485Z,6.72
2023-12-05T10:24:44.260Z,7.15
2023-12-05T10:27:11.348Z,6.57
2023-12-05T10:29:40.970Z,6.25
2023-12-05T10:32:09.254Z,6.57
2023-12-05T10:34:50.402Z,5.97
2023-12-05T10:37:29.563Z,5.47
2023-12-05T10:40:01.885Z,6.63
2023-12-05T10:42:30.324Z,11.95
2023-12-05T10:44:58.942Z,8.93
2023-12-05T10:47:29.181Z,8.43
2023-12-05T10:49:56.484Z,8.40
2023-12-05T10:52:23.453Z,9.23
2023-12-05T10:54:59.391Z,10.10
2023-12-05T10:57:36.911Z,12.20
2023-12-05T11:00:06.462Z,11.65
2023-12-05T11:02:33.635Z,8.27
2023-12-05T11:05:04.819Z,8.77
2023-12-05T11:07:31.624Z,11.00
2023-12-05T11:09:58.284Z,7.82
2023-12-05T11:12:25.613Z,6.85
2023-12-05T11:14:56.624Z,8.82
2023-12-05T11:17:37.181Z,5.32
2023-12-05T11:21:01.351Z,6.28
2023-12-05T11:23:57.283Z,6.00
2023-12-05T11:26:50.403Z,8.98
2023-12-05T11:29:55.918Z,4.35
2023-12-05T11:32:50.872Z,11.05
2023-12-05T11:36:06.705Z,3.45
2023-12-05T11:38:34.083Z,3.88
2023-12-05T11:41:22.045Z,2.78
2023-12-05T11:44:13.867Z,2.90
2023-12-05T11:46:50.805Z,2.80
2023-12-05T11:49:39.412Z,2.47
2023-12-05T11:52:12.236Z,2.28
2023-12-05T11:54:45.606Z,2.40
2023-12-05T11:57:21.393Z,2.35
2023-12-05T11:59:51.799Z,2.10
2023-12-05T12:02:26.369Z,2.22
2023-12-05T12:05:07.611Z,2.15
2023-12-05T12:07:57.281Z,2.35
2023-12-05T12:10:25.350Z,2.20
2023-12-05T12:12:55.285Z,2.00
2023-12-05T12:15:22.991Z,2.13
2023-12-05T12:17:49.974Z,2.25
2023-12-05T12:20:18.843Z,2.28
2023-12-05T12:22:51.336Z,2.33
2023-12-05T12:25:20.034Z,1.90
2023-12-05T12:27:46.795Z,2.17
2023-12-05T12:30:16.694Z,1.90
2023-12-05T12:32:58.256Z,1.77
2023-12-05T12:35:25.919Z,1.70
2023-12-05T12:37:55.349Z,2.10
2023-12-05T12:40:22.904Z,2.53
2023-12-05T12:42:51.157Z,1.85
2023-12-05T12:45:17.829Z,1.70
2023-12-05T12:47:44.603Z,1.60
2023-12-05T12:50:12.690Z,1.50
2023-12-05T12:52:39.560Z,1.95
2023-12-05T12:55:08.015Z,2.20
2023-12-05T12:57:35.888Z,2.17
2023-12-05T13:00:30.446Z,1.92
2023-12-05T13:02:54.713Z,1.85
2023-12-05T13:05:53.401Z,1.83
2023-12-05T13:08:20.394Z,1.60
2023-12-05T13:10:47.470Z,1.80
2023-12-05T13:13:14.528Z,1.70
2023-12-05T13:15:44.985Z,1.77
2023-12-05T13:18:12.306Z,1.65
2023-12-05T13:20:53.207Z,1.77
2023-12-05T13:23:21.157Z,2.30
2023-12-05T13:25:47.883Z,1.77
2023-12-05T13:28:14.972Z,1.40
2023-12-05T13:30:43.036Z,1.80
2023-12-05T13:33:12.959Z,1.30
2023-12-05T13:35:40.890Z,1.70
2023-12-05T13:38:08.899Z,1.45
2023-12-05T13:40:35.792Z,1.60
2023-12-05T13:43:02.714Z,1.40
2023-12-05T13:45:29.402Z,1.83
2023-12-05T13:47:56.570Z,1.52
2023-12-05T13:50:23.430Z,1.50
2023-12-05T13:52:50.123Z,1.33
2023-12-05T13:55:16.731Z,1.35
2023-12-05T13:57:43.501Z,1.30
2023-12-05T14:00:11.537Z,1.67
2023-12-05T14:02:38.310Z,1.10
2023-12-05T14:05:08.916Z,1.00
2023-12-05T14:07:35.764Z,1.30
2023-12-05T14:10:04.455Z,1.38
2023-12-05T14:12:31.153Z,1.00
2023-12-05T14:14:58.286Z,0.93
2023-12-05T14:17:24.985Z,0.70
2023-12-05T14:19:53.069Z,0.80
2023-12-05T14:22:20.504Z,0.60
2023-12-05T14:24:47.351Z,0.50
2023-12-05T14:27:14.616Z,0.55
2023-12-05T14:29:41.220Z,0.50
2023-12-05T14:32:07.885Z,0.40
2023-12-05T14:34:34.549Z,0.32
2023-12-05T14:37:01.676Z,0.40
2023-12-05T14:39:28.373Z,0.40
2023-12-05T14:41:55.104Z,0.40
2023-12-05T14:44:26.320Z,0.40
2023-12-05T14:46:53.096Z,0.30
2023-12-05T14:49:20.693Z,0.40
2023-12-05T14:51:47.436Z,0.50
2023-12-05T14:54:14.083Z,0.70
2023-12-05T14:56:40.822Z,0.40
2023-12-05T14:59:07.451Z,0.50
2023-12-05T15:01:37.447Z,0.50
2023-12-05T15:04:04.467Z,0.82
2023-12-05T15:06:31.226Z,0.43
2023-12-05T15:08:59.925Z,0.60
2023-12-05T15:11:28.310Z,0.82
2023-12-05T15:13:59.695Z,4.57
2023-12-05T15:16:26.451Z,1.60
2023-12-05T15:18:54.222Z,2.42
2023-12-05T15:21:26.000Z,1.38
2023-12-05T15:23:54.110Z,1.10
2023-12-05T15:26:21.346Z,0.95
2023-12-05T15:28:48.253Z,1.50
2023-12-05T15:31:16.528Z,0.63
2023-12-05T15:33:43.747Z,1.30
2023-12-05T15:36:12.443Z,1.30
2023-12-05T15:38:41.177Z,1.50
2023-12-05T15:41:10.101Z,1.10
2023-12-05T15:43:37.500Z,0.75
2023-12-05T15:46:06.015Z,1.20
2023-12-05T15:48:44.002Z,2.63
2023-12-05T15:51:13.262Z,1.10
2023-12-05T15:53:40.582Z,0.80
2023-12-05T15:56:07.800Z,1.15
2023-12-05T15:58:36.165Z,0.88
2023-12-05T16:01:03.004Z,0.90
2023-12-05T16:03:29.785Z,0.43
2023-12-05T16:05:56.498Z,0.43
2023-12-05T16:08:23.423Z,0.35
2023-12-05T16:10:53.185Z,0.55
2023-12-05T16:13:20.988Z,0.50
2023-12-05T16:15:47.918Z,0.77
2023-12-05T16:18:14.851Z,0.98
2023-12-05T16:20:51.336Z,0.90
2023-12-05T16:23:18.023Z,0.93
2023-12-05T16:25:44.750Z,0.65
2023-12-05T16:28:11.501Z,0.70
2023-12-05T16:30:38.672Z,0.70
2023-12-05T16:33:05.391Z,0.70
2023-12-05T16:35:32.483Z,2.92
2023-12-05T16:37:59.147Z,1.95
2023-12-05T16:40:25.774Z,1.05
2023-12-05T16:42:52.549Z,0.95
2023-12-05T16:45:23.817Z,0.90
2023-12-05T16:47:56.964Z,0.85
2023-12-05T16:50:23.758Z,0.80
2023-12-05T16:52:50.411Z,0.70
2023-12-05T16:55:17.074Z,0.80
2023-12-05T16:57:44.100Z,0.60
2023-12-05T17:00:11.599Z,0.65
2023-12-05T17:02:38.320Z,0.60
2023-12-05T17:05:05.816Z,0.70
2023-12-05T17:07:32.704Z,0.60
2023-12-05T17:10:00.219Z,0.70
2023-12-05T17:12:26.964Z,0.95
2023-12-05T17:14:55.285Z,1.10
2023-12-05T17:17:22.131Z,1.48
2023-12-05T17:19:49.198Z,1.50
2023-12-05T17:22:16.400Z,1.10
2023-12-05T17:24:43.645Z,1.30
2023-12-05T17:27:13.818Z,1.50
2023-12-05T17:29:40.421Z,1.23
2023-12-05T17:32:07.281Z,1.70
2023-12-05T17:34:34.017Z,1.90
2023-12-05T17:37:00.697Z,1.75
2023-12-05T17:39:28.862Z,1.70
2023-12-05T17:41:55.578Z,1.48
2023-12-05T17:44:22.582Z,1.30
2023-12-05T17:46:49.506Z,1.17
2023-12-05T17:49:16.551Z,1.92
2023-12-05T17:51:47.665Z,2.20
2023-12-05T17:54:16.342Z,1.85
2023-12-05T17:56:48.475Z,1.85
2023-12-05T17:59:15.164Z,1.20
2023-12-05T18:01:42.712Z,1.20
2023-12-05T18:04:09.582Z,2.95
2023-12-05T18:06:36.332Z,3.05
2023-12-05T18:09:03.036Z,2.95
2023-12-05T18:11:29.825Z,3.70
2023-12-05T18:13:56.650Z,2.20
2023-12-05T18:16:23.430Z,2.20
2023-12-05T18:18:51.563Z,3.60
2023-12-05T18:21:19.820Z,2.80
2023-12-05T18:23:48.347Z,2.40
2023-12-05T18:26:16.246Z,2.20
2023-12-05T18:28:43.100Z,1.85
2023-12-05T18:31:09.843Z,1.60
2023-12-05T18:33:36.783Z,2.25
2023-12-05T18:36:05.357Z,1.95
2023-12-05T18:38:32.076Z,1.38
2023-12-05T18:40:58.784Z,1.60
2023-12-05T18:43:25.496Z,1.40
2023-12-05T18:45:53.141Z,1.10
2023-12-05T18:48:19.986Z,0.90
2023-12-05T18:50:47.217Z,0.70
2023-12-05T18:53:13.999Z,0.88
2023-12-05T18:55:41.213Z,0.80
2023-12-05T18:58:08.675Z,1.60
2023-12-05T19:00:37.996Z,1.70
2023-12-05T19:03:06.740Z,3.45
2023-12-05T19:05:33.487Z,3.60
2023-12-05T19:08:02.317Z,2.65
2023-12-05T19:10:29.639Z,2.85
2023-12-05T19:12:58.506Z,3.13
2023-12-05T19:15:25.278Z,2.50
2023-12-05T19:17:53.823Z,3.03
2023-12-05T19:20:20.616Z,2.60
2023-12-05T19:22:49.040Z,2.10
2023-12-05T19:25:16.007Z,1.75
2023-12-05T19:27:42.800Z,2.70
2023-12-05T19:30:10.151Z,3.78
2023-12-05T19:32:38.514Z,3.38
2023-12-05T19:35:08.253Z,2.65
2023-12-05T19:37:37.902Z,4.32
2023-12-05T19:40:05.688Z,4.15
2023-12-05T19:42:37.733Z,4.88
2023-12-05T19:45:05.030Z,4.53
2023-12-05T19:47:32.210Z,4.85
2023-12-05T19:49:59.149Z,4.25
2023-12-05T19:52:25.941Z,3.78
2023-12-05T19:54:53.709Z,4.10
2023-12-05T19:57:20.747Z,7.72
2023-12-05T19:59:49.500Z,3.90
2023-12-05T20:02:16.379Z,3.65
2023-12-05T20:04:43.479Z,8.18
2023-12-05T20:07:10.768Z,17.20
2023-12-05T20:09:38.272Z,7.07
2023-12-05T20:12:09.180Z,2.92
2023-12-05T20:14:35.929Z,1.80
2023-12-05T20:17:04.193Z,3.72
2023-12-05T20:19:32.116Z,5.18
2023-12-05T20:21:59.014Z,3.00
2023-12-05T20:24:25.908Z,1.85
2023-12-05T20:26:52.559Z,4.55
2023-12-05T20:29:19.353Z,3.15
2023-12-05T20:31:45.994Z,8.38
2023-12-05T20:34:13.120Z,7.63
2023-12-05T20:36:39.878Z,8.13
2023-12-05T20:39:09.890Z,4.15
2023-12-05T20:41:38.144Z,7.03
2023-12-05T20:44:05.611Z,8.25
2023-12-05T20:46:32.343Z,7.97
2023-12-05T20:48:59.172Z,6.70
2023-12-05T20:51:25.875Z,5.85
2023-12-05T20:53:54.498Z,4.40
2023-12-05T20:56:21.948Z,4.30
2023-12-05T20:58:48.667Z,3.65
2023-12-05T21:01:15.448Z,3.30
2023-12-05T21:03:42.245Z,3.22
2023-12-05T21:06:09.290Z,3.58
2023-12-05T21:09:09.422Z,2.30
2023-12-05T21:11:24.749Z,4.07
2023-12-05T21:13:51.780Z,3.65
2023-12-05T21:16:19.150Z,5.47
2023-12-05T21:18:46.010Z,3.22
2023-12-05T21:21:12.737Z,2.83
2023-12-05T21:23:39.605Z,2.88
2023-12-05T21:26:06.442Z,2.60
2023-12-05T21:28:33.199Z,3.28
2023-12-05T21:30:59.944Z,4.10
2023-12-05T21:33:26.665Z,3.50
2023-12-05T21:35:53.531Z,3.50
2023-12-05T21:38:28.296Z,3.08
2023-12-05T21:40:55.010Z,2.15
2023-12-05T21:43:23.368Z,2.05
2023-12-05T21:45:50.303Z,2.22
2023-12-05T21:48:17.275Z,2.45
2023-12-05T21:50:46.234Z,1.90
2023-12-05T21:53:13.791Z,2.20
2023-12-05T21:55:40.459Z,2.50
2023-12-05T21:58:07.191Z,2.05
2023-12-05T22:00:33.980Z,1.95
2023-12-05T22:03:00.841Z,2.63
2023-12-05T22:05:27.629Z,2.00
2023-12-05T22:07:54.368Z,1.60
2023-12-05T22:10:21.048Z,1.92
2023-12-05T22:12:47.730Z,2.00
2023-12-05T22:15:14.504Z,1.80
2023-12-05T22:17:41.425Z,1.80
2023-12-05T22:20:09.213Z,1.90
2023-12-05T22:22:35.884Z,1.98
2023-12-05T22:25:02.702Z,1.73
2023-12-05T22:27:29.418Z,1.60
2023-12-05T22:29:58.054Z,1.70
2023-12-05T22:32:24.823Z,1.40
2023-12-05T22:34:51.596Z,1.50
2023-12-05T22:37:20.806Z,1.33
2023-12-05T22:39:47.861Z,1.40
2023-12-05T22:42:14.578Z,1.50
2023-12-05T22:44:44.490Z,1.73
2023-12-05T22:47:11.222Z,1.60
2023-12-05T22:49:37.987Z,1.42
2023-12-05T22:52:05.418Z,1.70
2023-12-05T22:54:33.718Z,1.10
2023-12-05T22:57:00.441Z,1.30
2023-12-05T22:59:27.165Z,1.13
2023-12-05T23:01:53.775Z,1.10
2023-12-05T23:04:20.500Z,1.45
2023-12-05T23:06:47.251Z,1.35
2023-12-05T23:09:14.343Z,1.30
2023-12-05T23:11:41.306Z,1.25
2023-12-05T23:14:08.122Z,1.17
2023-12-05T23:16:34.835Z,1.20
2023-12-05T23:19:01.912Z,1.20
2023-12-05T23:21:32.088Z,1.00
2023-12-05T23:23:59.850Z,1.17
2023-12-05T23:26:28.448Z,1.10
2023-12-05T23:28:55.534Z,1.17
2023-12-05T23:31:22.310Z,1.15
2023-12-05T23:33:49.630Z,1.25
2023-12-05T23:36:16.489Z,1.00
2023-12-05T23:38:43.193Z,1.25
2023-12-05T23:41:09.949Z,1.15
2023-12-05T23:43:36.615Z,1.40
2023-12-05T23:46:05.258Z,1.38
2023-12-05T23:48:32.120Z,1.10
2023-12-05T23:50:58.902Z,1.35
2023-12-05T23:53:25.636Z,1.27
2023-12-05T23:55:52.761Z,1.20
2023-12-05T23:58:19.409Z,1.30
